createdAt,value
2022-12-27T00:00:44.829Z,0.77
2022-12-27T00:03:13.734Z,0.90
2022-12-27T00:05:43.823Z,0.70
2022-12-27T00:08:11.717Z,0.80
2022-12-27T00:10:41.515Z,0.80
2022-12-27T00:13:09.432Z,0.70
2022-12-27T00:15:37.727Z,0.70
2022-12-27T00:18:05.837Z,0.70
2022-12-27T00:20:33.624Z,0.60
2022-12-27T00:23:02.102Z,0.63
2022-12-27T00:25:29.941Z,0.90
2022-12-27T00:27:59.154Z,0.80
2022-12-27T00:30:26.998Z,0.67
2022-12-27T00:32:54.980Z,0.70
2022-12-27T00:35:24.064Z,0.63
2022-12-27T00:37:51.917Z,0.50
2022-12-27T00:40:19.681Z,0.70
2022-12-27T00:42:47.479Z,0.70
2022-12-27T00:45:16.920Z,0.60
2022-12-27T00:47:44.715Z,0.40
2022-12-27T00:50:12.632Z,0.50
2022-12-27T00:52:40.436Z,0.67
2022-12-27T00:55:09.197Z,0.50
2022-12-27T00:57:36.995Z,0.60
2022-12-27T01:00:10.183Z,0.53
2022-12-27T01:02:39.834Z,0.43
2022-12-27T01:05:08.358Z,0.47
2022-12-27T01:07:36.224Z,0.60
2022-12-27T01:10:04.643Z,0.37
2022-12-27T01:12:32.500Z,0.70
2022-12-27T01:15:00.359Z,0.80
2022-12-27T01:17:30.274Z,0.60
2022-12-27T01:19:59.544Z,0.40
2022-12-27T01:22:27.456Z,0.50
2022-12-27T01:24:55.306Z,0.63
2022-12-27T01:27:23.265Z,0.70
2022-12-27T01:29:51.049Z,0.70
2022-12-27T01:32:18.984Z,0.40
2022-12-27T01:34:46.797Z,0.50
2022-12-27T01:37:15.951Z,0.67
2022-12-27T01:39:43.818Z,0.80
2022-12-27T01:42:34.628Z,0.70
2022-12-27T01:45:04.001Z,0.63
2022-12-27T01:47:44.183Z,0.80
2022-12-27T01:50:19.392Z,0.70
2022-12-27T01:52:52.845Z,0.70
2022-12-27T01:55:28.556Z,0.70
2022-12-27T01:58:00.789Z,0.63
2022-12-27T02:00:28.817Z,0.50
2022-12-27T02:02:57.384Z,0.80
2022-12-27T02:05:26.600Z,0.50
2022-12-27T02:08:10.315Z,0.40
2022-12-27T02:10:39.571Z,0.63
2022-12-27T02:13:07.627Z,1.10
2022-12-27T02:15:35.872Z,0.90
2022-12-27T02:18:03.959Z,0.57
2022-12-27T02:20:44.117Z,0.90
2022-12-27T02:23:53.479Z,0.57
2022-12-27T02:26:38.076Z,0.80
2022-12-27T02:29:19.208Z,1.00
2022-12-27T02:31:53.117Z,0.70
2022-12-27T02:34:26.000Z,0.53
2022-12-27T02:36:59.768Z,0.70
2022-12-27T02:39:29.972Z,0.70
2022-12-27T02:42:16.326Z,0.87
2022-12-27T02:45:03.669Z,0.70
2022-12-27T02:47:49.883Z,0.87
2022-12-27T02:50:36.060Z,0.70
2022-12-27T02:53:11.374Z,0.70
2022-12-27T02:56:13.364Z,0.67
2022-12-27T03:02:15.256Z,0.80
2022-12-27T03:05:03.275Z,0.87
2022-12-27T03:07:41.520Z,0.70
2022-12-27T03:10:35.020Z,0.50
2022-12-27T03:13:39.768Z,0.70
2022-12-27T03:16:17.217Z,0.87
2022-12-27T03:19:00.172Z,0.63
2022-12-27T03:21:49.127Z,0.80
2022-12-27T03:24:37.321Z,1.40
2022-12-27T03:27:10.703Z,0.97
2022-12-27T03:29:56.907Z,0.77
2022-12-27T03:32:39.870Z,0.80
2022-12-27T03:35:16.566Z,0.70
2022-12-27T03:38:05.283Z,1.00
2022-12-27T03:40:40.321Z,0.80
2022-12-27T03:43:12.818Z,0.70
2022-12-27T03:46:16.796Z,0.77
2022-12-27T03:49:06.804Z,0.70
2022-12-27T03:51:41.504Z,1.00
2022-12-27T03:54:16.643Z,0.83
2022-12-27T03:56:44.562Z,0.77
2022-12-27T03:59:13.644Z,1.00
2022-12-27T04:01:43.061Z,0.80
2022-12-27T04:04:11.039Z,1.00
2022-12-27T04:06:40.757Z,1.20
2022-12-27T04:09:28.076Z,1.20
2022-12-27T04:12:13.760Z,1.20
2022-12-27T04:14:59.276Z,1.00
2022-12-27T04:17:45.263Z,0.90
2022-12-27T04:20:30.639Z,1.00
2022-12-27T04:23:17.701Z,1.00
2022-12-27T04:26:03.650Z,1.47
2022-12-27T04:28:48.931Z,1.07
2022-12-27T04:31:34.907Z,0.80
2022-12-27T04:34:20.149Z,1.23
2022-12-27T04:36:48.537Z,1.10
2022-12-27T04:39:17.837Z,1.20
2022-12-27T04:42:03.261Z,1.43
2022-12-27T04:44:59.973Z,1.10
2022-12-27T04:47:45.719Z,1.20
2022-12-27T04:50:40.623Z,1.20
2022-12-27T04:53:29.060Z,1.47
2022-12-27T04:55:58.446Z,2.10
2022-12-27T04:58:26.788Z,1.23
2022-12-27T05:01:19.062Z,0.97
2022-12-27T05:03:49.565Z,1.20
2022-12-27T05:06:18.477Z,1.60
2022-12-27T05:09:09.352Z,1.20
2022-12-27T05:11:56.184Z,1.80
2022-12-27T05:14:24.024Z,1.53
2022-12-27T05:16:51.874Z,1.43
2022-12-27T05:19:19.719Z,1.33
2022-12-27T05:22:01.487Z,3.33
2022-12-27T05:24:48.123Z,1.63
2022-12-27T05:27:17.348Z,1.70
2022-12-27T05:29:45.288Z,1.60
2022-12-27T05:32:13.913Z,2.40
2022-12-27T05:34:42.062Z,2.80
2022-12-27T05:37:10.077Z,1.43
2022-12-27T05:39:37.985Z,1.20
2022-12-27T05:42:06.415Z,1.40
2022-12-27T05:44:35.637Z,1.60
2022-12-27T05:47:03.528Z,7.37
2022-12-27T05:49:31.403Z,4.47
2022-12-27T05:51:59.240Z,3.67
2022-12-27T05:54:27.104Z,2.20
2022-12-27T05:56:55.311Z,2.40
2022-12-27T05:59:23.168Z,2.30
2022-12-27T06:01:52.676Z,3.10
2022-12-27T06:04:20.663Z,2.90
2022-12-27T06:06:48.550Z,2.67
2022-12-27T06:09:16.552Z,1.77
2022-12-27T06:11:44.456Z,1.83
2022-12-27T06:14:12.569Z,1.67
2022-12-27T06:16:40.515Z,1.50
2022-12-27T06:19:09.814Z,1.53
2022-12-27T06:21:37.656Z,1.90
2022-12-27T06:24:06.189Z,2.13
2022-12-27T06:26:34.481Z,3.00
2022-12-27T06:29:02.308Z,2.30
2022-12-27T06:31:30.379Z,2.37
2022-12-27T06:33:58.522Z,2.57
2022-12-27T06:36:29.636Z,2.23
2022-12-27T06:38:57.591Z,2.07
2022-12-27T06:41:25.861Z,2.07
2022-12-27T06:43:56.951Z,2.30
2022-12-27T06:46:25.638Z,1.90
2022-12-27T06:48:53.899Z,2.07
2022-12-27T06:51:22.604Z,2.17
2022-12-27T06:53:51.838Z,2.23
2022-12-27T06:56:21.865Z,2.10
2022-12-27T06:58:51.106Z,2.23
2022-12-27T07:01:21.800Z,2.47
2022-12-27T07:03:51.384Z,2.70
2022-12-27T07:06:20.111Z,2.30
2022-12-27T07:08:48.399Z,2.63
2022-12-27T07:11:19.093Z,2.23
2022-12-27T07:13:48.647Z,2.40
2022-12-27T07:16:19.121Z,3.00
2022-12-27T07:18:49.844Z,5.17
2022-12-27T07:21:20.292Z,4.40
2022-12-27T07:23:48.867Z,4.93
2022-12-27T07:26:19.661Z,4.97
2022-12-27T07:28:48.264Z,4.07
2022-12-27T07:31:18.203Z,4.50
2022-12-27T07:33:46.744Z,4.50
2022-12-27T07:36:17.469Z,5.10
2022-12-27T07:38:45.989Z,3.70
2022-12-27T07:41:14.563Z,4.80
2022-12-27T07:43:44.718Z,5.30
2022-12-27T07:46:14.793Z,5.53
2022-12-27T07:48:43.230Z,5.83
2022-12-27T07:51:11.708Z,4.47
2022-12-27T07:53:40.112Z,4.60
2022-12-27T07:56:09.183Z,4.30
2022-12-27T07:58:38.603Z,4.70
2022-12-27T08:01:09.195Z,4.70
2022-12-27T08:03:37.617Z,3.83
2022-12-27T08:06:06.462Z,2.87
2022-12-27T08:08:39.627Z,2.90
2022-12-27T08:11:08.214Z,2.10
2022-12-27T08:13:36.588Z,2.77
2022-12-27T08:16:05.481Z,2.87
2022-12-27T08:18:35.289Z,2.60
2022-12-27T08:21:03.195Z,2.77
2022-12-27T08:23:30.984Z,2.60
2022-12-27T08:25:58.817Z,3.60
2022-12-27T08:28:28.181Z,2.93
2022-12-27T08:30:56.165Z,2.23
2022-12-27T08:33:24.949Z,1.80
2022-12-27T08:35:55.000Z,1.43
2022-12-27T08:38:23.537Z,1.33
2022-12-27T08:40:52.450Z,1.80
2022-12-27T08:43:21.322Z,1.87
2022-12-27T08:45:49.137Z,2.13
2022-12-27T08:48:17.179Z,1.60
2022-12-27T08:50:45.188Z,1.50
2022-12-27T08:53:14.535Z,2.20
2022-12-27T08:55:42.371Z,1.70
2022-12-27T08:58:15.988Z,1.50
2022-12-27T09:00:44.740Z,2.00
2022-12-27T09:03:12.805Z,1.70
2022-12-27T09:05:42.072Z,2.10
2022-12-27T09:08:10.920Z,1.83
2022-12-27T09:10:40.137Z,1.80
2022-12-27T09:13:08.120Z,1.97
2022-12-27T09:15:36.106Z,1.87
2022-12-27T09:18:04.119Z,2.37
2022-12-27T09:20:32.013Z,2.10
2022-12-27T09:23:00.367Z,1.70
2022-12-27T09:25:28.291Z,2.20
2022-12-27T09:27:57.479Z,2.50
2022-12-27T09:30:25.476Z,3.33
2022-12-27T09:32:53.349Z,2.73
2022-12-27T09:35:21.150Z,2.37
2022-12-27T09:37:48.986Z,2.20
2022-12-27T09:40:19.714Z,2.90
2022-12-27T09:43:12.599Z,2.20
2022-12-27T09:45:50.073Z,2.63
2022-12-27T09:48:31.021Z,2.43
2022-12-27T09:51:05.280Z,2.70
2022-12-27T09:53:42.792Z,2.50
2022-12-27T09:56:14.033Z,4.00
2022-12-27T09:58:48.429Z,3.13
2022-12-27T10:01:22.577Z,2.33
2022-12-27T10:03:51.278Z,2.70
2022-12-27T10:06:42.893Z,2.63
2022-12-27T10:09:30.664Z,2.53
2022-12-27T10:12:05.691Z,2.50
2022-12-27T10:14:49.716Z,2.37
2022-12-27T10:17:35.996Z,3.30
2022-12-27T10:20:19.179Z,3.20
2022-12-27T10:22:50.518Z,2.20
2022-12-27T10:25:23.216Z,2.27
2022-12-27T10:27:52.334Z,2.30
2022-12-27T10:30:21.989Z,2.17
2022-12-27T10:32:51.556Z,2.40
2022-12-27T10:35:21.075Z,2.40
2022-12-27T10:37:50.033Z,2.70
2022-12-27T10:40:23.633Z,3.23
2022-12-27T10:43:03.755Z,2.97
2022-12-27T10:45:34.744Z,2.40
2022-12-27T10:48:17.826Z,3.07
2022-12-27T10:50:49.883Z,3.10
2022-12-27T10:53:31.021Z,2.50
2022-12-27T10:56:08.805Z,2.17
2022-12-27T10:58:41.019Z,2.03
2022-12-27T11:01:17.535Z,2.17
2022-12-27T11:03:47.143Z,1.97
2022-12-27T11:06:24.602Z,1.90
2022-12-27T11:08:54.407Z,2.07
2022-12-27T11:11:24.481Z,1.87
2022-12-27T11:13:53.078Z,1.83
2022-12-27T11:16:29.060Z,1.63
2022-12-27T11:19:00.171Z,2.00
2022-12-27T11:21:30.468Z,1.80
2022-12-27T11:24:01.937Z,2.00
2022-12-27T11:26:40.566Z,1.87
2022-12-27T11:29:19.397Z,1.33
2022-12-27T11:31:49.350Z,1.63
2022-12-27T11:34:22.303Z,1.40
2022-12-27T11:36:52.489Z,1.80
2022-12-27T11:39:44.011Z,2.07
2022-12-27T11:42:19.255Z,1.87
2022-12-27T11:44:56.405Z,1.80
2022-12-27T11:47:33.076Z,2.23
2022-12-27T11:50:23.124Z,2.27
2022-12-27T11:53:22.238Z,1.50
2022-12-27T11:56:14.476Z,1.63
2022-12-27T11:59:03.223Z,1.67
2022-12-27T12:01:46.247Z,2.00
2022-12-27T12:04:54.680Z,3.33
2022-12-27T12:07:43.233Z,3.70
2022-12-27T12:10:23.166Z,2.10
2022-12-27T12:13:10.936Z,2.40
2022-12-27T12:15:57.589Z,3.40
2022-12-27T12:18:40.409Z,3.47
2022-12-27T12:21:31.820Z,7.07
2022-12-27T12:24:38.743Z,2.57
2022-12-27T12:27:25.630Z,2.13
2022-12-27T12:30:27.048Z,2.40
2022-12-27T12:33:37.477Z,1.87
2022-12-27T12:36:26.728Z,3.20
2022-12-27T12:39:02.734Z,1.90
2022-12-27T12:41:55.407Z,2.17
2022-12-27T12:44:45.524Z,1.83
2022-12-27T12:47:27.978Z,1.60
2022-12-27T12:50:13.174Z,2.33
2022-12-27T12:53:01.808Z,1.97
2022-12-27T12:55:40.831Z,2.23
2022-12-27T12:58:25.628Z,2.23
2022-12-27T13:01:08.674Z,1.53
2022-12-27T13:03:59.328Z,1.40
2022-12-27T13:06:49.088Z,1.50
2022-12-27T13:09:31.185Z,1.60
2022-12-27T13:12:06.040Z,4.87
2022-12-27T13:14:56.164Z,3.67
2022-12-27T13:17:32.958Z,4.47
2022-12-27T13:20:23.212Z,4.37
2022-12-27T13:23:04.264Z,2.57
2022-12-27T13:25:42.298Z,2.13
2022-12-27T13:28:29.825Z,2.10
2022-12-27T13:31:07.131Z,2.30
2022-12-27T13:33:48.500Z,3.73
2022-12-27T13:36:28.037Z,2.40
2022-12-27T13:39:15.225Z,2.60
2022-12-27T13:41:59.332Z,3.03
2022-12-27T13:44:44.282Z,2.57
2022-12-27T13:47:42.963Z,1.63
2022-12-27T13:50:56.571Z,26.63
2022-12-27T13:54:05.990Z,22.67
2022-12-27T13:56:57.226Z,11.10
2022-12-27T13:59:44.835Z,19.87
2022-12-27T14:02:45.554Z,13.70
2022-12-27T14:06:00.918Z,16.93
2022-12-27T14:08:49.904Z,15.93
2022-12-27T14:11:34.211Z,5.27
2022-12-27T14:14:05.148Z,3.63
2022-12-27T14:16:43.439Z,5.40
2022-12-27T14:19:50.666Z,5.00
2022-12-27T14:22:35.192Z,13.50
2022-12-27T14:25:44.548Z,2.70
2022-12-27T14:29:03.243Z,4.03
2022-12-27T14:32:22.397Z,1.40
2022-12-27T14:35:30.099Z,2.80
2022-12-27T14:38:36.964Z,1.90
2022-12-27T14:41:37.419Z,1.70
2022-12-27T14:44:50.121Z,1.67
2022-12-27T14:47:55.824Z,1.40
2022-12-27T14:51:03.612Z,1.77
2022-12-27T14:54:16.212Z,3.33
2022-12-27T14:56:57.137Z,2.10
2022-12-27T14:59:37.832Z,2.40
2022-12-27T15:02:30.868Z,3.20
2022-12-27T15:05:21.391Z,1.57
2022-12-27T15:08:29.613Z,1.40
2022-12-27T15:11:09.227Z,2.10
2022-12-27T15:13:52.688Z,1.67
2022-12-27T15:16:35.214Z,2.37
2022-12-27T15:19:17.541Z,4.73
2022-12-27T15:21:55.353Z,2.40
2022-12-27T15:24:41.416Z,2.63
2022-12-27T15:27:20.311Z,2.07
2022-12-27T15:30:03.674Z,3.90
2022-12-27T15:32:48.259Z,4.33
2022-12-27T15:35:33.601Z,3.73
2022-12-27T15:38:09.304Z,3.57
2022-12-27T15:40:48.039Z,2.60
2022-12-27T15:43:55.919Z,2.20
2022-12-27T15:46:50.318Z,13.23
2022-12-27T15:49:51.895Z,8.40
2022-12-27T15:52:27.944Z,7.17
2022-12-27T15:55:18.560Z,4.17
2022-12-27T15:58:08.504Z,3.30
2022-12-27T16:00:37.203Z,4.27
2022-12-27T16:03:35.984Z,4.30
2022-12-27T16:06:05.133Z,6.17
2022-12-27T16:08:38.991Z,4.90
2022-12-27T16:11:12.113Z,3.30
2022-12-27T16:13:46.837Z,1.80
2022-12-27T16:16:57.429Z,3.47
2022-12-27T16:20:02.926Z,3.43
2022-12-27T16:22:37.969Z,4.63
2022-12-27T16:25:31.029Z,3.47
2022-12-27T16:28:07.706Z,4.07
2022-12-27T16:30:47.815Z,4.67
2022-12-27T16:33:33.985Z,5.20
2022-12-27T16:36:18.587Z,5.93
2022-12-27T16:38:49.556Z,5.13
2022-12-27T16:41:30.376Z,6.87
2022-12-27T16:44:13.620Z,9.23
2022-12-27T16:47:08.291Z,10.10
2022-12-27T16:49:56.587Z,9.20
2022-12-27T16:52:48.819Z,12.33
2022-12-27T16:55:37.408Z,15.73
2022-12-27T16:58:24.513Z,16.80
2022-12-27T17:00:54.006Z,11.50
2022-12-27T17:03:32.265Z,12.30
2022-12-27T17:09:33.802Z,7.90
2022-12-27T17:12:19.491Z,10.00
2022-12-27T17:14:47.917Z,8.97
2022-12-27T17:17:20.789Z,8.23
2022-12-27T17:19:55.170Z,7.53
2022-12-27T17:22:28.834Z,7.20
2022-12-27T17:25:03.962Z,7.37
2022-12-27T17:27:45.017Z,7.27
2022-12-27T17:30:22.942Z,7.17
2022-12-27T17:33:17.933Z,8.07
2022-12-27T17:36:00.274Z,7.10
2022-12-27T17:38:39.517Z,7.10
2022-12-27T17:41:18.888Z,7.23
2022-12-27T17:44:16.136Z,8.10
2022-12-27T17:46:55.587Z,11.00
2022-12-27T17:49:28.057Z,9.23
2022-12-27T17:52:14.877Z,9.27
2022-12-27T17:55:00.311Z,8.90
2022-12-27T17:57:46.894Z,9.03
2022-12-27T18:00:23.829Z,8.47
2022-12-27T18:02:53.144Z,11.47
2022-12-27T18:05:27.379Z,31.87
2022-12-27T18:08:02.966Z,35.97
2022-12-27T18:10:31.739Z,33.77
2022-12-27T18:13:03.781Z,25.20
2022-12-27T18:15:34.686Z,20.97
2022-12-27T18:18:05.185Z,19.43
2022-12-27T18:20:36.451Z,16.93
2022-12-27T18:23:19.179Z,11.67
2022-12-27T18:25:53.246Z,10.60
2022-12-27T18:28:30.485Z,10.73
2022-12-27T18:31:05.772Z,9.80
2022-12-27T18:33:35.807Z,9.77
2022-12-27T18:36:06.901Z,11.00
2022-12-27T18:38:38.794Z,17.73
2022-12-27T18:41:09.679Z,17.13
2022-12-27T18:43:44.698Z,12.67
2022-12-27T18:46:17.497Z,11.87
2022-12-27T18:48:46.212Z,10.87
2022-12-27T18:51:14.371Z,9.53
2022-12-27T18:53:43.898Z,13.53
2022-12-27T18:56:29.100Z,13.40
2022-12-27T18:59:03.681Z,15.60
2022-12-27T19:01:39.553Z,16.33
2022-12-27T19:04:23.466Z,19.43
2022-12-27T19:06:56.100Z,14.07
2022-12-27T19:09:27.255Z,11.50
2022-12-27T19:11:57.403Z,12.27
2022-12-27T19:14:30.434Z,13.17
2022-12-27T19:17:06.981Z,12.77
2022-12-27T19:19:38.614Z,12.43
2022-12-27T19:22:34.526Z,12.50
2022-12-27T19:25:05.554Z,12.83
2022-12-27T19:27:33.484Z,12.70
2022-12-27T19:30:02.723Z,12.90
2022-12-27T19:32:35.354Z,13.87
2022-12-27T19:35:05.998Z,15.97
2022-12-27T19:37:35.626Z,9.70
2022-12-27T19:40:03.713Z,8.77
2022-12-27T19:42:34.913Z,8.57
2022-12-27T19:45:04.654Z,9.67
2022-12-27T19:47:34.808Z,9.10
2022-12-27T19:50:02.662Z,7.43
2022-12-27T19:52:30.749Z,8.97
2022-12-27T19:55:02.661Z,8.40
2022-12-27T19:57:30.485Z,7.77
2022-12-27T19:59:58.362Z,7.00
2022-12-27T20:02:27.756Z,7.17
2022-12-27T20:04:56.523Z,7.40
2022-12-27T20:07:26.414Z,7.33
2022-12-27T20:09:54.400Z,7.90
2022-12-27T20:12:22.185Z,8.20
2022-12-27T20:14:50.077Z,10.47
2022-12-27T20:17:17.947Z,9.67
2022-12-27T20:19:47.312Z,10.93
2022-12-27T20:22:15.229Z,9.63
2022-12-27T20:24:43.057Z,10.57
2022-12-27T20:27:10.885Z,12.53
2022-12-27T20:29:38.720Z,14.47
2022-12-27T20:32:06.948Z,15.13
2022-12-27T20:34:34.841Z,14.00
2022-12-27T20:37:04.498Z,12.47
2022-12-27T20:39:32.304Z,10.67
2022-12-27T20:42:00.437Z,11.97
2022-12-27T20:44:29.100Z,10.90
2022-12-27T20:46:56.885Z,10.40
2022-12-27T20:49:24.857Z,9.07
2022-12-27T20:51:52.978Z,8.43
2022-12-27T20:54:22.490Z,9.73
2022-12-27T20:56:50.355Z,9.50
2022-12-27T20:59:18.161Z,9.20
2022-12-27T21:01:46.143Z,9.87
2022-12-27T21:04:14.246Z,9.80
2022-12-27T21:06:42.090Z,12.67
2022-12-27T21:09:10.143Z,13.37
2022-12-27T21:11:39.705Z,13.40
2022-12-27T21:14:07.616Z,12.10
2022-12-27T21:16:36.472Z,9.70
2022-12-27T21:19:05.321Z,10.97
2022-12-27T21:21:35.487Z,12.67
2022-12-27T21:24:03.984Z,11.73
2022-12-27T21:26:33.864Z,12.17
2022-12-27T21:29:05.300Z,12.33
2022-12-27T21:31:33.449Z,11.07
2022-12-27T21:34:02.338Z,10.57
2022-12-27T21:36:34.015Z,10.67
2022-12-27T21:39:03.045Z,11.00
2022-12-27T21:41:33.103Z,9.10
2022-12-27T21:44:01.290Z,8.97
2022-12-27T21:46:32.416Z,8.63
2022-12-27T21:49:01.788Z,9.83
2022-12-27T21:51:30.734Z,8.77
2022-12-27T21:53:58.756Z,8.27
2022-12-27T21:56:27.625Z,8.23
2022-12-27T21:58:56.403Z,9.60
2022-12-27T22:01:25.686Z,9.50
2022-12-27T22:03:56.829Z,8.63
2022-12-27T22:06:27.193Z,9.90
2022-12-27T22:08:57.183Z,9.17
2022-12-27T22:11:25.800Z,8.53
2022-12-27T22:13:53.795Z,8.97
2022-12-27T22:16:23.968Z,10.27
2022-12-27T22:18:52.324Z,10.47
2022-12-27T22:21:24.619Z,11.00
2022-12-27T22:23:55.078Z,8.87
2022-12-27T22:26:24.999Z,9.50
2022-12-27T22:28:52.915Z,9.60
2022-12-27T22:31:22.835Z,8.90
2022-12-27T22:33:51.561Z,9.07
2022-12-27T22:36:22.785Z,9.17
2022-12-27T22:38:53.556Z,9.40
2022-12-27T22:41:25.850Z,11.13
2022-12-27T22:43:55.502Z,14.87
2022-12-27T22:46:23.534Z,14.17
2022-12-27T22:48:52.477Z,13.60
2022-12-27T22:51:24.365Z,16.60
2022-12-27T22:53:52.712Z,15.73
2022-12-27T22:56:22.485Z,16.67
2022-12-27T22:58:50.937Z,16.93
2022-12-27T23:01:21.069Z,17.03
2022-12-27T23:03:49.686Z,15.47
2022-12-27T23:06:18.783Z,15.37
2022-12-27T23:08:48.694Z,13.57
2022-12-27T23:11:18.597Z,14.10
2022-12-27T23:13:47.316Z,13.30
2022-12-27T23:16:15.952Z,12.90
2022-12-27T23:18:43.875Z,10.77
2022-12-27T23:21:21.800Z,10.73
2022-12-27T23:23:53.902Z,9.50
2022-12-27T23:26:24.023Z,8.53
2022-12-27T23:28:53.399Z,10.27
2022-12-27T23:31:22.845Z,9.70
2022-12-27T23:33:51.085Z,10.30
2022-12-27T23:36:20.511Z,9.10
2022-12-27T23:38:49.013Z,10.10
2022-12-27T23:41:21.043Z,8.43
2022-12-27T23:43:52.658Z,8.40
2022-12-27T23:46:23.729Z,9.07
2022-12-27T23:48:51.942Z,8.70
2022-12-27T23:51:20.619Z,9.67
2022-12-27T23:53:48.614Z,9.17
2022-12-27T23:56:19.941Z,9.47
2022-12-27T23:58:48.716Z,9.43
